»·PEaware :: SWA3340 KRNO-KSAN

SWA3340 :: KRNO-KSAN

FLIGHT INFORMATION

Flight Status: Arrived
Operator:
Southwest Airlines
More flights by this operator :: More flights under this callsign
Pilot: Dave P. (45)
Aircraft: BOEING 737-700
(B737)
More flights by this aircraft type
Origin: KRNO Reno/Tahoe Intl
United States
Destination: KSAN San Diego Intl-Lindbergh
United States
More flights between these airports :: More routes between these airports
Route: ZEFFR6 DARBI EHF HUULK COMIX2
File this flight plan on PilotEdge
Remarks: PBN / A1B1C1D1S1S2 DOF / 180708 REG / N737PM EET / KZLA0036 OPR / SWA PER / C RMK / TCAS SIMBRIEF
Altitude:
(Current/Filed)
39,000ft
Speed:
(Current/Filed)
457kts
Departed: 08-Jul-18 08:18 AM
Arrived: 08-Jul-18 09:34 AM
Distance/Time
Traveled:
425nm/1:16
Distance/Time
To Go:
Arrived

Flight Plot

Page will automatically refresh every two minutes.

Flight plan parsing failed; only flown route is shown


Map Options




Map Legend


Flown Route
Filed Route
Departure Airport
Arrival Airport
Navaid (VOR, NDB)
Fix

Horizontal Profiles

Position Reports

Time Latitude Longitude Heading Altitude Ground
Speed
08-Jul-18 07:52 39.504397 -119.773761 359 4423ft 0kts
08-Jul-18 07:53 39.504397 -119.773761 359 4423ft 0kts
08-Jul-18 07:54 39.504397 -119.773761 359 4423ft 0kts
08-Jul-18 07:55 39.504397 -119.773761 359 4423ft 0kts
08-Jul-18 07:56 39.504397 -119.773761 359 4423ft 0kts
08-Jul-18 07:57 39.504397 -119.773761 359 4423ft 0kts
08-Jul-18 07:58 39.504397 -119.773761 359 4423ft 0kts
08-Jul-18 07:59 39.504397 -119.773761 359 4423ft 0kts
08-Jul-18 08:00 39.504397 -119.773761 359 4423ft 0kts
08-Jul-18 08:01 39.504397 -119.773761 359 4423ft 0kts
08-Jul-18 08:02 39.504397 -119.773761 359 4423ft 0kts
08-Jul-18 08:03 39.504397 -119.773761 359 4423ft 0kts
08-Jul-18 08:04 39.504397 -119.773761 359 4423ft 0kts
08-Jul-18 08:05 39.504397 -119.773761 359 4423ft 0kts
08-Jul-18 08:06 39.504397 -119.773761 359 4423ft 0kts
08-Jul-18 08:07 39.504397 -119.773761 359 4423ft 0kts
08-Jul-18 08:07 39.504397 -119.773761 359 4423ft 0kts
08-Jul-18 08:08 39.504397 -119.773761 359 4423ft 0kts
08-Jul-18 08:09 39.504397 -119.773761 359 4423ft 0kts
08-Jul-18 08:10 39.504395 -119.773761 359 4423ft 0kts
08-Jul-18 08:11 39.503804 -119.774121 61 4423ft 2kts
08-Jul-18 08:12 39.503747 -119.774304 73 4423ft 0kts
08-Jul-18 08:13 39.503751 -119.774230 92 4423ft 2kts
08-Jul-18 08:14 39.504149 -119.771487 5 4423ft 14kts
08-Jul-18 08:15 39.509730 -119.771480 0 4423ft 22kts
08-Jul-18 08:16 39.513795 -119.770725 93 4423ft 4kts
08-Jul-18 08:17 39.511345 -119.769234 180 4423ft 33kts
08-Jul-18 08:18 39.475416 -119.769043 178 5327ft 169kts
08-Jul-18 08:20 39.422595 -119.769325 180 6947ft 227kts
08-Jul-18 08:21 39.349200 -119.769632 180 9016ft 286kts
08-Jul-18 08:22 39.267561 -119.767784 180 11870ft 316kts
08-Jul-18 08:23 39.172903 -119.764182 180 14318ft 351kts
08-Jul-18 08:24 39.073133 -119.760442 180 17279ft 366kts
08-Jul-18 08:25 38.968892 -119.756506 180 19902ft 383kts
08-Jul-18 08:26 38.859899 -119.752407 180 22166ft 401kts
08-Jul-18 08:27 38.746246 -119.748160 180 24119ft 416kts
08-Jul-18 08:28 38.628839 -119.743785 180 25940ft 427kts
08-Jul-18 08:29 38.508365 -119.739303 179 27445ft 440kts
08-Jul-18 08:30 38.384297 -119.734713 179 28785ft 451kts
08-Jul-18 08:31 38.258188 -119.722426 171 29970ft 461kts
08-Jul-18 08:32 38.132078 -119.692828 171 31486ft 458kts
08-Jul-18 08:33 38.007377 -119.663787 171 33113ft 453kts
08-Jul-18 08:34 37.883369 -119.634962 171 34626ft 450kts
08-Jul-18 08:35 37.760875 -119.606609 171 36028ft 446kts
08-Jul-18 08:36 37.639466 -119.578641 171 37263ft 442kts
08-Jul-18 08:37 37.518739 -119.550934 171 38338ft 440kts
08-Jul-18 08:38 37.398500 -119.523436 171 39193ft 440kts
08-Jul-18 08:39 37.278231 -119.496019 171 39166ft 437kts
08-Jul-18 08:40 37.161012 -119.469385 171 39129ft 439kts
08-Jul-18 08:41 37.040629 -119.442119 171 39095ft 439kts
08-Jul-18 08:42 36.920382 -119.414972 171 39067ft 440kts
08-Jul-18 08:43 36.800119 -119.387906 171 39055ft 440kts
08-Jul-18 08:44 36.679441 -119.360834 171 39050ft 440kts
08-Jul-18 08:45 36.558783 -119.333853 171 39044ft 440kts
08-Jul-18 08:46 36.438130 -119.306958 171 39036ft 440kts
08-Jul-18 08:47 36.317511 -119.280156 171 39032ft 440kts
08-Jul-18 08:48 36.196919 -119.253443 171 39034ft 440kts
08-Jul-18 08:49 36.076096 -119.226763 171 39037ft 441kts
08-Jul-18 08:50 35.955073 -119.200120 171 39037ft 442kts
08-Jul-18 08:51 35.833861 -119.173518 171 39032ft 442kts
08-Jul-18 08:52 35.712988 -119.147015 171 39030ft 442kts
08-Jul-18 08:53 35.591659 -119.120575 171 39034ft 442kts
08-Jul-18 08:54 35.471127 -119.088444 161 39039ft 445kts
08-Jul-18 08:55 35.358029 -119.026937 157 39042ft 446kts
08-Jul-18 08:56 35.244887 -118.963927 157 39058ft 446kts
08-Jul-18 08:57 35.131910 -118.901137 156 39088ft 446kts
08-Jul-18 08:58 35.019104 -118.838571 157 39164ft 445kts
08-Jul-18 08:59 34.905957 -118.776098 156 39212ft 446kts
08-Jul-18 09:00 34.792972 -118.713785 156 39246ft 446kts
08-Jul-18 09:01 34.679645 -118.651679 156 39249ft 446kts
08-Jul-18 09:02 34.567453 -118.587851 151 39194ft 447kts
08-Jul-18 09:03 34.460200 -118.510675 150 39119ft 448kts
08-Jul-18 09:04 34.352463 -118.433716 150 39049ft 449kts
08-Jul-18 09:05 34.244936 -118.357249 150 39022ft 449kts
08-Jul-18 09:06 34.136935 -118.280726 150 38983ft 449kts
08-Jul-18 09:07 34.029168 -118.204536 150 38657ft 449kts
08-Jul-18 09:08 33.921535 -118.128950 150 35889ft 449kts
08-Jul-18 09:09 33.812240 -118.053348 151 32677ft 456kts
08-Jul-18 09:10 33.701269 -117.980107 150 29806ft 449kts
08-Jul-18 09:11 33.593215 -117.908901 150 27226ft 437kts
08-Jul-18 09:12 33.488826 -117.838831 150 24690ft 425kts
08-Jul-18 09:13 33.394078 -117.756647 137 22161ft 415kts
08-Jul-18 09:14 33.309311 -117.665456 137 19676ft 406kts
08-Jul-18 09:15 33.226086 -117.577035 137 17790ft 384kts
08-Jul-18 09:16 33.147832 -117.494747 137 16045ft 369kts
08-Jul-18 09:17 33.068342 -117.426061 144 15184ft 324kts
08-Jul-18 09:18 33.000266 -117.369173 143 14306ft 285kts
08-Jul-18 09:19 32.936154 -117.315496 143 12767ft 278kts
08-Jul-18 09:20 32.873485 -117.263259 144 11184ft 274kts
08-Jul-18 09:21 32.814471 -117.207159 120 9542ft 273kts
08-Jul-18 09:22 32.791671 -117.122484 104 8419ft 254kts
08-Jul-18 09:23 32.771803 -117.044585 114 7314ft 244kts
08-Jul-18 09:24 32.744736 -116.971350 107 6161ft 242kts
08-Jul-18 09:25 32.727053 -116.900197 106 6011ft 205kts
08-Jul-18 09:26 32.711018 -116.834976 106 6004ft 206kts
08-Jul-18 09:27 32.675990 -116.795902 189 5690ft 193kts
08-Jul-18 09:28 32.623326 -116.810490 218 4973ft 196kts
08-Jul-18 09:29 32.638148 -116.864942 311 5055ft 200kts
08-Jul-18 09:30 32.668927 -116.917563 283 4115ft 196kts
08-Jul-18 09:31 32.682676 -116.979616 285 3806ft 196kts
08-Jul-18 09:32 32.697806 -117.042246 285 3243ft 208kts
08-Jul-18 09:33 32.713232 -117.105841 284 1551ft 177kts
08-Jul-18 09:34 32.725260 -117.155441 283 570ft 142kts
08-Jul-18 09:35 32.734279 -117.192704 286 23ft 34kts
08-Jul-18 09:36 32.733613 -117.195121 211 23ft 7kts
08-Jul-18 09:37 32.733141 -117.195700 227 23ft 0kts
08-Jul-18 09:38 32.733141 -117.195700 227 23ft 0kts
08-Jul-18 09:39 32.733141 -117.195700 227 23ft 0kts
08-Jul-18 09:40 32.733141 -117.195700 227 23ft 0kts
08-Jul-18 09:41 32.733141 -117.195700 227 23ft 0kts
08-Jul-18 09:42 32.733141 -117.195700 227 23ft 0kts
08-Jul-18 09:43 32.733141 -117.195700 227 23ft 0kts
08-Jul-18 09:44 32.733141 -117.195700 227 23ft 0kts
08-Jul-18 09:45 32.733141 -117.195700 227 23ft 0kts
08-Jul-18 09:46 32.733141 -117.195700 227 23ft 0kts
08-Jul-18 09:47 32.733141 -117.195700 227 23ft 0kts
08-Jul-18 09:48 32.733141 -117.195700 227 23ft 0kts

Navigation Log

Ident Type
Flight plan parsing failed, navigation log unavailable